Time;durP1;ratioP1;P1;durP2;ratioP2;P2;SDS_P1;SDS_P2;PMS_P1;PMS_P2;Temp;Humidity;BMP_temperature;BMP_pressure;BME280_temperature;BME280_humidity;BME280_pressure;Samples;Min_cycle;Max_cycle;Signal;HPM_P1;HPM_P2
2023/08/04 00:00:22;;;;;;;2.72;1.70;;;;;;;19.05;61.84;99489.84;5088036;28;20236;-59
2023/08/04 00:02:50;;;;;;;2.53;1.42;;;;;;;19.02;61.88;99493.44;5090096;28;20200;-59
2023/08/04 00:05:17;;;;;;;2.55;1.48;;;;;;;19.01;61.89;99493.53;5089160;28;20201;-57
2023/08/04 00:07:45;;;;;;;2.65;1.40;;;;;;;19.00;61.62;99491.84;5091048;28;20667;-58
2023/08/04 00:10:15;;;;;;;1.98;1.30;;;;;;;18.97;62.02;99498.09;5080757;28;20215;-58
2023/08/04 00:12:42;;;;;;;2.80;1.05;;;;;;;18.94;62.20;99500.03;5088565;28;20201;-59
2023/08/04 00:15:11;;;;;;;2.10;1.20;;;;;;;18.94;62.19;99510.47;5089683;28;20212;-60
2023/08/04 00:17:39;;;;;;;2.35;1.25;;;;;;;18.89;61.95;99505.50;5081612;28;20201;-59
2023/08/04 00:20:10;;;;;;;1.88;1.10;;;;;;;18.88;62.12;99514.25;5084697;28;20236;-59
2023/08/04 00:22:39;;;;;;;4.95;1.50;;;;;;;18.85;62.32;99517.00;5088585;28;20200;-61
2023/08/04 00:25:08;;;;;;;3.13;1.38;;;;;;;18.84;62.20;99525.78;5088418;28;20624;-58
2023/08/04 00:27:37;;;;;;;1.83;1.40;;;;;;;18.84;62.40;99523.16;5085819;28;20224;-58
2023/08/04 00:30:06;;;;;;;4.28;1.08;;;;;;;18.82;62.33;99512.81;5083493;28;20205;-59
2023/08/04 00:32:34;;;;;;;2.80;1.00;;;;;;;18.79;62.46;99510.38;5086251;28;20574;-58
2023/08/04 00:35:05;;;;;;;2.50;1.20;;;;;;;18.79;62.27;99510.38;5087930;28;20701;-59
2023/08/04 00:37:34;;;;;;;2.20;1.20;;;;;;;18.76;62.50;99512.31;5083861;28;20232;-57
2023/08/04 00:40:02;;;;;;;2.35;1.27;;;;;;;18.74;62.62;99501.97;5081243;28;20255;-60
2023/08/04 00:42:30;;;;;;;3.20;1.58;;;;;;;18.71;62.65;99509.94;5082436;28;20325;-57
2023/08/04 00:45:00;;;;;;;3.25;1.20;;;;;;;18.69;62.80;99514.38;5087184;28;20287;-58
2023/08/04 00:47:29;;;;;;;2.65;1.27;;;;;;;18.69;62.66;99511.75;5077296;28;20762;-57
2023/08/04 00:49:57;;;;;;;1.80;1.20;;;;;;;18.69;62.68;99513.53;5082961;28;20562;-60
2023/08/04 00:52:25;;;;;;;2.65;1.20;;;;;;;18.70;62.68;99518.66;5087188;28;20244;-58
2023/08/04 00:54:53;;;;;;;1.40;1.02;;;;;;;18.70;62.42;99521.25;5088904;28;20240;-57
2023/08/04 00:57:21;;;;;;;3.88;1.17;;;;;;;18.70;62.47;99521.25;5087799;28;20576;-58
2023/08/04 00:59:49;;;;;;;2.35;1.25;;;;;;;18.70;62.45;99536.91;5085515;28;20682;-59
2023/08/04 01:02:19;;;;;;;1.98;1.48;;;;;;;18.70;62.40;99528.25;5087085;28;20208;-58
2023/08/04 01:04:47;;;;;;;2.65;1.40;;;;;;;18.68;62.74;99527.50;5087893;28;20215;-57
2023/08/04 01:07:21;;;;;;;1.92;1.30;;;;;;;18.68;62.91;99532.72;5088054;28;20228;-58
2023/08/04 01:10:02;;;;;;;3.78;1.50;;;;;;;18.65;62.96;99538.09;5089469;28;20257;-59
2023/08/04 01:12:38;;;;;;;2.08;1.10;;;;;;;18.61;62.99;99532.19;5080791;28;20200;-61
2023/08/04 01:15:09;;;;;;;2.28;0.93;;;;;;;18.61;63.11;99547.00;5086402;28;20227;-59
2023/08/04 01:17:38;;;;;;;4.60;1.00;;;;;;;18.59;63.45;99542.72;5090795;28;20212;-59
2023/08/04 01:20:07;;;;;;;1.67;1.00;;;;;;;18.58;63.46;99546.25;5089511;28;20233;-58
2023/08/04 01:22:36;;;;;;;2.33;1.15;;;;;;;18.58;63.38;99541.03;5087060;28;20724;-59
2023/08/04 01:25:05;;;;;;;2.53;1.20;;;;;;;18.57;63.41;99546.34;5082775;28;20200;-58
2023/08/04 01:27:38;;;;;;;2.78;1.25;;;;;;;18.53;63.42;99530.00;5075525;28;20648;-56
2023/08/04 01:30:10;;;;;;;2.83;1.20;;;;;;;18.51;64.00;99520.56;5086552;28;20223;-58
2023/08/04 01:32:38;;;;;;;3.38;1.50;;;;;;;18.49;63.70;99518.03;5090659;28;21634;-59
2023/08/04 01:35:07;;;;;;;1.85;1.30;;;;;;;18.47;63.97;99525.09;5085746;28;20986;-59
2023/08/04 01:37:37;;;;;;;1.85;1.30;;;;;;;18.47;63.80;99525.09;5082970;28;20205;-59
2023/08/04 01:40:06;;;;;;;2.75;1.35;;;;;;;18.46;64.04;99526.03;5077497;28;20227;-57
2023/08/04 01:42:34;;;;;;;2.15;1.20;;;;;;;18.45;63.86;99539.16;5087911;28;20301;-59
2023/08/04 01:45:02;;;;;;;3.92;1.08;;;;;;;18.43;64.14;99535.78;5081372;28;20325;-58
2023/08/04 01:47:30;;;;;;;2.47;1.25;;;;;;;18.43;64.22;99534.00;5082981;28;20204;-58
2023/08/04 01:49:58;;;;;;;5.47;1.30;;;;;;;18.43;64.16;99548.81;5088958;28;20193;-57
2023/08/04 01:52:26;;;;;;;3.72;1.17;;;;;;;18.42;64.33;99537.53;5090699;28;20197;-58
2023/08/04 01:54:55;;;;;;;3.10;1.50;;;;;;;18.42;64.26;99536.69;5076771;28;20652;-60
2023/08/04 01:57:23;;;;;;;2.53;1.35;;;;;;;18.39;64.21;99531.63;5084799;28;20215;-58
2023/08/04 01:59:51;;;;;;;3.30;1.40;;;;;;;18.37;64.53;99541.28;5083160;28;20300;-59
2023/08/04 02:02:19;;;;;;;1.40;1.00;;;;;;;18.33;64.61;99538.84;5090754;28;20227;-58
2023/08/04 02:04:47;;;;;;;3.92;1.30;;;;;;;18.33;64.59;99538.84;5082719;28;20607;-59
2023/08/04 02:07:15;;;;;;;2.45;1.33;;;;;;;18.31;64.76;99534.66;5087716;28;20247;-60
2023/08/04 02:09:43;;;;;;;1.80;1.10;;;;;;;18.29;64.74;99531.25;5086453;28;20555;-58
2023/08/04 02:12:12;;;;;;;4.28;1.60;;;;;;;18.30;64.83;99541.63;5087749;28;20196;-57
2023/08/04 02:14:40;;;;;;;3.95;1.40;;;;;;;18.29;64.72;99544.31;5080999;28;20656;-58
2023/08/04 02:17:08;;;;;;;3.03;1.63;;;;;;;18.27;64.77;99544.41;5088805;28;20730;-59
2023/08/04 02:19:36;;;;;;;2.35;1.25;;;;;;;18.24;64.96;99547.16;5082165;28;20193;-58
2023/08/04 02:22:05;;;;;;;2.30;1.15;;;;;;;18.24;65.21;99551.53;5081541;28;20244;-57
2023/08/04 02:24:32;;;;;;;1.63;1.10;;;;;;;18.22;65.21;99553.34;5085988;28;20201;-58
2023/08/04 02:27:00;;;;;;;1.77;1.20;;;;;;;18.19;65.27;99557.00;5075925;28;20291;-58
2023/08/04 02:29:30;;;;;;;2.33;1.48;;;;;;;18.17;65.48;99555.38;5078804;28;20215;-57
2023/08/04 02:31:57;;;;;;;2.55;1.20;;;;;;;18.13;65.45;99556.44;5084757;28;20216;-59
2023/08/04 02:34:25;;;;;;;2.47;1.58;;;;;;;18.13;65.68;99566.88;5086892;28;20229;-58
2023/08/04 02:36:53;;;;;;;5.35;1.42;;;;;;;18.09;65.86;99561.81;5088170;28;20258;-57
2023/08/04 02:39:21;;;;;;;2.42;1.40;;;;;;;18.07;65.88;99574.06;5081387;28;20660;-59
2023/08/04 02:41:49;;;;;;;2.00;1.20;;;;;;;18.05;65.81;99577.69;5088752;28;20336;-58
2023/08/04 02:44:17;;;;;;;3.17;1.38;;;;;;;18.02;65.97;99578.69;5086966;28;20603;-58
2023/08/04 02:46:46;;;;;;;5.20;1.40;;;;;;;18.02;65.98;99575.22;5088014;28;20284;-57
2023/08/04 02:49:14;;;;;;;2.25;1.23;;;;;;;18.01;66.03;99574.41;5087116;28;20200;-59
2023/08/04 02:51:42;;;;;;;3.35;1.42;;;;;;;18.01;65.89;99583.97;5084875;28;20269;-58
2023/08/04 02:54:11;;;;;;;2.45;1.33;;;;;;;18.00;65.99;99587.47;5090450;28;20689;-58
2023/08/04 02:56:39;;;;;;;1.65;1.13;;;;;;;17.97;66.05;99593.72;5077277;28;20204;-61
2023/08/04 02:59:07;;;;;;;2.78;1.42;;;;;;;17.97;66.29;99598.94;5085680;28;20244;-57
2023/08/04 03:01:34;;;;;;;1.98;1.20;;;;;;;17.97;66.24;99590.25;5085054;28;20217;-57
2023/08/04 03:04:04;;;;;;;1.83;1.10;;;;;;;17.96;66.34;99601.59;5087012;28;20227;-57
2023/08/04 03:06:32;;;;;;;2.28;1.38;;;;;;;17.94;66.21;99603.44;5078821;28;20201;-58
2023/08/04 03:09:00;;;;;;;1.92;1.25;;;;;;;17.92;66.30;99610.47;5086377;28;20205;-59
2023/08/04 03:11:28;;;;;;;2.30;1.35;;;;;;;17.91;66.65;99619.22;5088887;28;20698;-57
2023/08/04 03:13:56;;;;;;;3.20;1.55;;;;;;;17.89;66.67;99608.03;5090073;28;20647;-57
2023/08/04 03:16:24;;;;;;;1.48;1.15;;;;;;;17.86;66.74;99616.84;5084345;28;20209;-58
2023/08/04 03:18:52;;;;;;;2.97;1.48;;;;;;;17.85;66.74;99615.97;5088872;28;20208;-58
2023/08/04 03:21:21;;;;;;;2.95;1.33;;;;;;;17.85;66.88;99631.63;5083732;28;20282;-60
2023/08/04 03:23:49;;;;;;;3.50;1.17;;;;;;;17.88;66.70;99625.44;5093952;28;20712;-59
2023/08/04 03:26:17;;;;;;;5.15;1.52;;;;;;;17.88;66.49;99621.97;5088450;28;20224;-57
2023/08/04 03:28:45;;;;;;;4.65;1.50;;;;;;;17.88;66.75;99621.97;5080685;28;20216;-59
2023/08/04 03:31:13;;;;;;;4.95;1.58;;;;;;;17.88;66.67;99632.41;5087560;28;20212;-56
2023/08/04 03:33:41;;;;;;;2.30;1.50;;;;;;;17.90;66.61;99636.63;5094099;28;20702;-58
2023/08/04 03:36:09;;;;;;;2.08;1.50;;;;;;;17.90;66.58;99647.06;5083178;28;20216;-59
2023/08/04 03:38:38;;;;;;;2.33;1.33;;;;;;;17.93;66.60;99643.44;5086056;28;20536;-57
2023/08/04 03:41:06;;;;;;;1.60;1.00;;;;;;;17.93;66.57;99644.31;5086921;28;20323;-57
2023/08/04 03:43:34;;;;;;;2.88;1.52;;;;;;;17.93;66.30;99641.72;5090275;28;20588;-58
2023/08/04 03:46:02;;;;;;;2.17;1.20;;;;;;;17.97;66.09;99639.78;5090089;28;20285;-59
2023/08/04 03:48:30;;;;;;;3.22;1.45;;;;;;;17.98;66.01;99644.94;5084070;28;20205;-60
2023/08/04 03:50:58;;;;;;;3.58;1.42;;;;;;;17.99;65.89;99635.34;5090455;28;20201;-58
2023/08/04 03:53:26;;;;;;;5.28;1.50;;;;;;;18.00;66.02;99634.41;5088266;28;20610;-59
2023/08/04 03:55:56;;;;;;;1.83;1.30;;;;;;;18.00;65.83;99629.19;5088540;28;20635;-60
2023/08/04 03:58:24;;;;;;;3.13;1.35;;;;;;;18.02;65.97;99627.38;5085111;28;20208;-59
2023/08/04 04:00:51;;;;;;;2.17;1.30;;;;;;;18.03;65.70;99631.66;5089271;28;20211;-59
2023/08/04 04:03:19;;;;;;;3.28;1.38;;;;;;;18.03;65.85;99640.31;5085109;28;20255;-59
2023/08/04 04:05:47;;;;;;;2.45;1.20;;;;;;;18.05;65.66;99650.69;5089415;28;20281;-58
2023/08/04 04:08:15;;;;;;;8.00;1.65;;;;;;;18.04;65.83;99647.25;5089400;28;20212;-56
2023/08/04 04:10:43;;;;;;;1.42;1.17;;;;;;;18.12;65.57;99644.25;5091051;28;20231;-60
2023/08/04 04:13:13;;;;;;;3.13;1.30;;;;;;;18.22;65.26;99645.47;5084480;28;20197;-58
2023/08/04 04:15:41;;;;;;;1.58;1.35;;;;;;;18.36;65.05;99642.19;5088577;28;20634;-57
2023/08/04 04:18:08;;;;;;;5.10;1.48;;;;;;;18.46;64.60;99653.00;5087699;28;20205;-56
2023/08/04 04:20:36;;;;;;;3.42;1.50;;;;;;;18.55;64.38;99653.38;5089274;28;20204;-58
2023/08/04 04:23:04;;;;;;;2.58;1.40;;;;;;;18.65;64.01;99652.91;5089162;28;20248;-58
2023/08/04 04:25:32;;;;;;;4.20;1.67;;;;;;;18.76;63.70;99656.69;5077370;28;20205;-57
2023/08/04 04:28:00;;;;;;;2.38;1.20;;;;;;;18.82;63.45;99660.78;5081283;28;22567;-57
2023/08/04 04:30:35;;;;;;;3.53;1.35;;;;;;;18.89;63.40;99661.28;5089252;28;20250;-59
2023/08/04 04:33:03;;;;;;;5.13;1.42;;;;;;;19.05;62.92;99659.56;5076819;28;20236;-58
2023/08/04 04:35:31;;;;;;;4.13;1.13;;;;;;;19.25;62.37;99659.34;5081767;28;20201;-58
2023/08/04 04:37:59;;;;;;;6.47;1.70;;;;;;;19.45;61.58;99670.50;5081932;28;20236;-57
2023/08/04 04:40:27;;;;;;;5.85;1.77;;;;;;;19.64;60.94;99668.59;5081961;28;20201;-58
2023/08/04 04:42:55;;;;;;;3.10;1.27;;;;;;;19.78;60.14;99662.63;5089079;28;20226;-58
2023/08/04 04:45:22;;;;;;;3.72;1.60;;;;;;;19.81;60.01;99678.13;5080893;28;20208;-58
2023/08/04 04:47:52;;;;;;;2.42;1.55;;;;;;;19.79;59.53;99679.97;5079757;28;20202;-59
2023/08/04 04:50:20;;;;;;;2.25;1.38;;;;;;;19.75;59.88;99688.94;5084527;28;20212;-58
2023/08/04 04:52:48;;;;;;;4.05;1.60;;;;;;;19.67;60.31;99689.34;5085386;28;20224;-58
2023/08/04 04:55:15;;;;;;;2.15;1.40;;;;;;;19.62;60.70;99691.34;5083634;28;20247;-58
2023/08/04 04:57:43;;;;;;;2.15;1.50;;;;;;;19.65;60.54;99691.19;5086488;28;20668;-58
2023/08/04 05:00:12;;;;;;;4.00;1.38;;;;;;;19.79;60.31;99701.72;5090938;28;20212;-56
2023/08/04 05:02:40;;;;;;;1.92;1.20;;;;;;;19.93;59.95;99697.53;5079967;28;20587;-58
2023/08/04 05:05:10;;;;;;;4.03;1.38;;;;;;;20.12;59.25;99692.09;5084570;28;20224;-59
2023/08/04 05:07:38;;;;;;;2.28;1.10;;;;;;;20.27;58.73;99691.22;5076118;28;20201;-58
2023/08/04 05:10:07;;;;;;;2.80;1.27;;;;;;;20.49;58.26;99706.53;5075220;28;20224;-57
2023/08/04 05:12:35;;;;;;;4.10;1.42;;;;;;;20.66;57.50;99709.06;5082148;28;20263;-58
2023/08/04 05:15:03;;;;;;;3.55;1.40;;;;;;;20.77;56.91;99705.81;5081567;28;20227;-59
2023/08/04 05:17:31;;;;;;;5.25;1.25;;;;;;;20.81;56.46;99701.22;5081873;28;20213;-61
2023/08/04 05:19:59;;;;;;;1.52;1.10;;;;;;;20.77;56.48;99711.03;5084998;28;20203;-59
2023/08/04 05:22:28;;;;;;;3.42;1.00;;;;;;;20.74;56.65;99704.19;5090854;28;20209;-59
2023/08/04 05:24:56;;;;;;;4.05;1.50;;;;;;;20.79;56.62;99705.69;5079893;28;20288;-59
2023/08/04 05:27:37;;;;;;;2.15;1.20;;;;;;;20.94;56.12;99715.25;5087851;28;20201;-59
2023/08/04 05:30:07;;;;;;;4.13;1.25;;;;;;;21.17;56.17;99704.25;5085432;28;20591;-58
2023/08/04 05:32:35;;;;;;;2.40;1.67;;;;;;;21.44;54.90;99706.16;5089392;28;20292;-61
2023/08/04 05:35:03;;;;;;;3.10;1.10;;;;;;;21.50;54.10;99718.84;5085458;28;20223;-60
2023/08/04 05:37:33;;;;;;;4.55;1.05;;;;;;;21.34;54.45;99708.47;5083814;28;20204;-59
2023/08/04 05:40:01;;;;;;;2.42;1.20;;;;;;;21.13;54.69;99712.38;5081383;28;20683;-58
2023/08/04 05:42:29;;;;;;;3.35;1.27;;;;;;;20.94;55.50;99717.88;5080935;28;20218;-60
2023/08/04 05:44:57;;;;;;;3.17;1.00;;;;;;;20.82;55.88;99703.75;5085791;28;20283;-61
2023/08/04 05:47:27;;;;;;;2.22;1.27;;;;;;;20.86;55.94;99720.13;5077842;28;20235;-61
2023/08/04 05:49:55;;;;;;;2.95;1.02;;;;;;;20.87;55.61;99719.19;5081145;28;20659;-60
2023/08/04 05:52:23;;;;;;;5.63;1.38;;;;;;;21.17;54.67;99724.34;5071908;28;20655;-60
2023/08/04 05:54:55;;;;;;;2.65;1.05;;;;;;;21.19;54.46;99722.50;5082667;28;20205;-60
2023/08/04 05:57:23;;;;;;;4.47;1.35;;;;;;;21.03;54.82;99725.19;5081620;28;20212;-62
2023/08/04 05:59:51;;;;;;;4.13;1.15;;;;;;;20.95;55.30;99719.56;5082313;28;20205;-60
2023/08/04 06:02:19;;;;;;;6.57;2.05;;;;;;;21.05;54.98;99723.31;5086713;28;20216;-63
2023/08/04 06:04:47;;;;;;;1.23;0.90;;;;;;;21.19;55.21;99728.56;5085737;28;20698;-60
2023/08/04 06:07:15;;;;;;;6.35;1.45;;;;;;;22.07;53.01;99724.00;5081267;28;20198;-60
2023/08/04 06:09:43;;;;;;;2.10;1.10;;;;;;;22.80;51.48;99720.13;5084593;28;20762;-60
2023/08/04 06:12:12;;;;;;;4.65;1.02;;;;;;;23.90;48.12;99716.91;5085185;28;20216;-59
2023/08/04 06:14:41;;;;;;;5.20;1.27;;;;;;;25.91;43.84;99715.69;5084180;28;20223;-59
2023/08/04 06:17:09;;;;;;;2.75;1.20;;;;;;;28.06;38.29;99708.91;5086563;28;20725;-59
2023/08/04 06:19:40;;;;;;;1.38;0.73;;;;;;;29.09;35.49;99713.59;5090770;28;20204;-59
2023/08/04 06:22:08;;;;;;;3.80;1.00;;;;;;;29.01;35.45;99710.81;5084535;28;20205;-60
2023/08/04 06:24:36;;;;;;;2.42;0.80;;;;;;;28.91;35.74;99716.13;5083530;28;20219;-60
2023/08/04 06:27:05;;;;;;;4.50;1.10;;;;;;;28.58;35.48;99706.84;5072620;28;20207;-60
2023/08/04 06:29:35;;;;;;;2.05;0.90;;;;;;;27.36;37.81;99700.91;5077301;28;20210;-60
2023/08/04 06:32:03;;;;;;;1.60;0.90;;;;;;;26.31;40.36;99723.84;5091177;28;20212;-60
2023/08/04 06:34:31;;;;;;;4.03;1.13;;;;;;;25.74;41.58;99735.50;5078997;28;20233;-59
2023/08/04 06:36:59;;;;;;;3.55;1.15;;;;;;;24.91;42.78;99739.25;5083671;28;20239;-60
2023/08/04 06:39:27;;;;;;;2.05;0.90;;;;;;;25.03;44.05;99730.41;5088685;28;20246;-61
2023/08/04 06:41:56;;;;;;;1.38;1.00;;;;;;;25.41;42.90;99750.38;5089328;28;20201;-61
2023/08/04 06:44:24;;;;;;;2.85;0.90;;;;;;;25.70;42.54;99745.47;5078388;28;20745;-61
2023/08/04 06:46:53;;;;;;;2.40;1.25;;;;;;;25.83;41.58;99749.78;5080632;28;20209;-60
2023/08/04 06:49:21;;;;;;;3.05;0.70;;;;;;;25.61;41.73;99753.25;5084054;28;20241;-60
2023/08/04 06:51:49;;;;;;;5.13;1.00;;;;;;;25.60;42.10;99755.06;5087849;28;20310;-61
2023/08/04 06:54:18;;;;;;;1.27;0.77;;;;;;;25.81;41.46;99763.09;5084989;28;20220;-61
2023/08/04 06:56:45;;;;;;;2.85;0.85;;;;;;;26.60;39.95;99750.53;5083933;28;20193;-62
2023/08/04 06:59:13;;;;;;;4.70;0.80;;;;;;;27.14;38.36;99743.41;5085087;28;20201;-63
2023/08/04 07:01:41;;;;;;;3.47;1.00;;;;;;;27.00;38.81;99743.72;5086068;28;20242;-62
2023/08/04 07:04:11;;;;;;;2.92;1.00;;;;;;;26.77;39.55;99742.97;5088189;28;20212;-63
2023/08/04 07:06:40;;;;;;;2.83;0.95;;;;;;;26.64;39.71;99740.53;5091225;28;20293;-61
2023/08/04 07:09:08;;;;;;;2.42;1.10;;;;;;;26.70;39.99;99745.31;5090947;28;20212;-64
2023/08/04 07:11:37;;;;;;;4.32;0.95;;;;;;;27.48;38.69;99748.44;5090307;28;20682;-63
2023/08/04 07:14:05;;;;;;;4.03;1.05;;;;;;;28.17;36.94;99753.81;5086125;28;20200;-68
2023/08/04 07:16:34;;;;;;;5.80;0.75;;;;;;;28.69;35.78;99749.09;5079592;28;20208;-63
2023/08/04 07:19:02;;;;;;;1.67;0.75;;;;;;;28.96;35.12;99751.00;5087427;28;20196;-63
2023/08/04 07:21:32;;;;;;;3.97;0.63;;;;;;;29.03;34.52;99751.31;5090118;28;20215;-62
2023/08/04 07:24:00;;;;;;;3.78;1.00;;;;;;;29.05;34.69;99752.84;5087797;28;20213;-62
2023/08/04 07:26:28;;;;;;;1.70;0.90;;;;;;;29.34;34.35;99758.03;5084150;28;20286;-62
2023/08/04 07:28:56;;;;;;;4.50;0.90;;;;;;;28.91;34.22;99760.38;5085724;28;20220;-64
2023/08/04 07:31:24;;;;;;;1.00;0.70;;;;;;;27.93;35.74;99764.75;5081160;28;20201;-61
2023/08/04 07:33:52;;;;;;;2.63;1.00;;;;;;;26.96;38.24;99777.50;5085478;28;20307;-61
2023/08/04 07:36:20;;;;;;;2.38;0.73;;;;;;;26.25;39.72;99767.47;5089426;28;20215;-61
2023/08/04 07:38:49;;;;;;;2.63;0.60;;;;;;;26.71;40.32;99776.06;5090739;28;20205;-61
2023/08/04 07:41:21;;;;;;;3.25;0.60;;;;;;;28.08;36.98;99781.09;5086678;28;20201;-62
2023/08/04 07:43:49;;;;;;;2.97;0.60;;;;;;;28.35;35.82;99789.25;5085035;28;20245;-62
2023/08/04 07:46:20;;;;;;;5.60;0.80;;;;;;;27.84;36.81;99800.03;5080035;28;20211;-62
2023/08/04 07:48:49;;;;;;;5.30;1.10;;;;;;;27.98;37.48;99796.97;5082860;28;20212;-61
2023/08/04 07:51:18;;;;;;;3.03;0.95;;;;;;;28.89;35.67;99798.47;5087268;28;20289;-62
2023/08/04 07:53:46;;;;;;;6.60;1.23;;;;;;;28.55;35.23;99791.94;5080555;28;20679;-62
2023/08/04 07:56:17;;;;;;;2.72;1.10;;;;;;;28.12;37.64;99801.88;5091701;28;20201;-62
2023/08/04 07:58:47;;;;;;;1.83;0.50;;;;;;;27.56;36.90;99809.47;5083921;28;20205;-62
2023/08/04 08:01:16;;;;;;;0.98;0.50;;;;;;;26.98;38.05;99812.56;5080140;28;20231;-61
2023/08/04 08:03:44;;;;;;;2.38;0.80;;;;;;;26.11;40.28;99814.44;5088998;28;20197;-61
2023/08/04 08:06:12;;;;;;;9.07;1.27;;;;;;;25.41;42.17;99818.13;5087062;28;20612;-62
2023/08/04 08:08:40;;;;;;;6.97;1.05;;;;;;;25.11;42.97;99816.00;5089134;28;20266;-63
2023/08/04 08:11:09;;;;;;;3.20;1.23;;;;;;;24.72;44.00;99810.97;5080410;28;20659;-63
2023/08/04 08:13:39;;;;;;;4.15;0.93;;;;;;;24.48;44.37;99816.22;5079703;28;20201;-62
2023/08/04 08:16:08;;;;;;;1.08;0.77;;;;;;;25.02;44.91;99818.38;5080291;28;20209;-63
2023/08/04 08:18:37;;;;;;;5.18;1.20;;;;;;;26.11;42.85;99817.06;5087149;28;20620;-64
2023/08/04 08:21:06;;;;;;;3.60;0.90;;;;;;;27.82;38.43;99817.84;5088849;28;20209;-64
2023/08/04 08:23:35;;;;;;;3.47;0.93;;;;;;;28.24;36.52;99810.53;5081618;28;20640;-64
2023/08/04 08:26:04;;;;;;;1.77;0.70;;;;;;;27.70;36.87;99811.78;5078025;28;20209;-63
2023/08/04 08:28:32;;;;;;;6.57;1.35;;;;;;;26.98;38.22;99821.34;5089445;28;20197;-62
2023/08/04 08:31:02;;;;;;;3.40;0.75;;;;;;;26.33;38.98;99822.31;5086105;28;20233;-61
2023/08/04 08:33:30;;;;;;;1.83;0.82;;;;;;;25.87;40.44;99835.69;5060826;28;20627;-64
2023/08/04 08:35:58;;;;;;;3.08;0.68;;;;;;;25.57;40.76;99845.00;5082830;28;20228;-63
2023/08/04 08:38:26;;;;;;;3.30;0.75;;;;;;;25.61;40.87;99853.53;5081428;28;20205;-63
2023/08/04 08:40:54;;;;;;;2.10;0.98;;;;;;;25.62;41.06;99853.38;5085285;28;20289;-63
2023/08/04 08:43:23;;;;;;;2.33;0.95;;;;;;;25.81;41.34;99846.72;5091963;28;20618;-62
2023/08/04 08:45:53;;;;;;;1.73;0.77;;;;;;;25.92;41.11;99849.34;5084999;28;20216;-63
2023/08/04 08:48:22;;;;;;;1.27;0.90;;;;;;;26.08;40.59;99843.72;5090888;28;20203;-63
2023/08/04 08:51:00;;;;;;;1.45;0.50;;;;;;;26.10;39.71;99850.53;5088332;28;20627;-63
2023/08/04 08:53:31;;;;;;;1.58;0.55;;;;;;;26.24;39.37;99854.72;5088474;28;20226;-63
2023/08/04 08:56:00;;;;;;;1.20;0.50;;;;;;;26.18;39.23;99849.94;5087325;28;20565;-63
2023/08/04 08:58:31;;;;;;;1.70;0.75;;;;;;;26.19;39.35;99851.63;5081196;28;20208;-62
2023/08/04 09:01:00;;;;;;;2.38;0.60;;;;;;;26.12;39.14;99851.28;5088699;28;20830;-62
2023/08/04 09:03:31;;;;;;;2.85;0.75;;;;;;;26.12;39.33;99858.34;5085109;28;20212;-63
2023/08/04 09:05:59;;;;;;;1.13;0.63;;;;;;;26.08;38.60;99855.13;5084514;28;20229;-62
2023/08/04 09:08:28;;;;;;;2.40;0.70;;;;;;;26.22;39.06;99859.31;5088136;28;20223;-64
2023/08/04 09:10:57;;;;;;;0.80;0.35;;;;;;;26.32;38.43;99862.03;5086310;28;20291;-65
2023/08/04 09:13:27;;;;;;;3.13;1.75;;;;;;;26.25;38.96;99866.97;5079602;28;20232;-62
2023/08/04 09:15:58;;;;;;;0.93;0.55;;;;;;;26.25;38.92;99859.91;5086726;28;20205;-63
2023/08/04 09:18:28;;;;;;;0.63;0.63;;;;;;;26.25;38.57;99859.03;5080481;28;20647;-63
2023/08/04 09:21:01;;;;;;;1.00;0.70;;;;;;;26.22;38.90;99864.59;5085865;28;20204;-64
2023/08/04 09:23:31;;;;;;;1.13;0.47;;;;;;;26.14;39.39;99853.78;5085976;28;20659;-62
2023/08/04 09:25:58;;;;;;;0.93;0.60;;;;;;;26.23;39.67;99853.91;5081064;28;20678;-65
2023/08/04 09:28:28;;;;;;;1.08;0.70;;;;;;;26.50;39.25;99856.13;5082843;28;20212;-63
2023/08/04 09:31:04;;;;;;;1.42;0.68;;;;;;;27.30;38.05;99854.03;5086688;28;20717;-65
2023/08/04 09:33:32;;;;;;;6.30;1.50;;;;;;;28.42;36.63;99856.63;5077886;28;20281;-63
2023/08/04 09:36:04;;;;;;;2.45;0.80;;;;;;;29.32;33.90;99858.22;5086858;28;20300;-63
2023/08/04 09:38:33;;;;;;;2.85;0.80;;;;;;;30.47;32.20;99860.56;5085062;28;20197;-62
2023/08/04 09:41:01;;;;;;;1.10;0.70;;;;;;;31.17;29.91;99855.41;5088918;28;20204;-62
2023/08/04 09:43:30;;;;;;;1.88;0.70;;;;;;;31.31;29.49;99862.03;5085417;28;20574;-63
2023/08/04 09:45:59;;;;;;;4.05;0.93;;;;;;;31.57;28.74;99853.22;5080729;28;20224;-63
2023/08/04 09:48:28;;;;;;;1.85;0.70;;;;;;;32.40;28.75;99851.63;5086472;28;20201;-63
2023/08/04 09:51:07;;;;;;;1.98;0.75;;;;;;;32.45;27.75;99856.47;5084874;28;20655;-64
2023/08/04 09:53:37;;;;;;;1.13;0.85;;;;;;;32.08;28.35;99856.81;5085387;28;20738;-60
2023/08/04 09:56:06;;;;;;;3.13;0.70;;;;;;;31.88;29.10;99862.38;5079836;28;20319;-60
2023/08/04 09:58:34;;;;;;;1.80;0.70;;;;;;;31.06;29.53;99871.63;5074386;28;20774;-60
2023/08/04 10:01:03;;;;;;;0.95;0.50;;;;;;;30.90;30.23;99872.34;5082318;28;20205;-61
2023/08/04 10:03:33;;;;;;;1.58;0.70;;;;;;;30.87;29.70;99877.97;5087131;28;20205;-63
2023/08/04 10:06:03;;;;;;;1.20;0.60;;;;;;;30.49;29.61;99871.06;5085839;28;20792;-64
2023/08/04 10:08:36;;;;;;;3.60;0.65;;;;;;;30.13;30.74;99870.13;5077147;28;20250;-65
2023/08/04 10:11:04;;;;;;;3.35;0.80;;;;;;;29.68;31.46;99871.72;5080945;28;20245;-64
2023/08/04 10:13:34;;;;;;;4.90;1.00;;;;;;;29.87;30.99;99873.47;5091306;28;20658;-64
2023/08/04 10:16:06;;;;;;;2.50;0.75;;;;;;;30.52;30.07;99873.41;5089686;28;20212;-62
2023/08/04 10:18:47;;;;;;;4.32;0.70;;;;;;;31.25;29.41;99871.44;5086966;28;20258;-64
2023/08/04 10:21:17;;;;;;;1.42;0.80;;;;;;;31.58;28.67;99866.38;5088323;28;20248;-62
2023/08/04 10:23:47;;;;;;;3.40;0.90;;;;;;;32.28;28.53;99873.38;5086575;28;20242;-64
2023/08/04 10:26:15;;;;;;;0.85;0.63;;;;;;;32.31;28.01;99862.38;5078941;28;20212;-63
2023/08/04 10:29:06;;;;;;;1.17;0.82;;;;;;;31.65;28.75;99861.25;5090709;28;20215;-63
2023/08/04 10:31:51;;;;;;;1.98;0.90;;;;;;;31.73;29.28;99859.44;5090890;28;20211;-63
2023/08/04 10:34:23;;;;;;;2.45;0.75;;;;;;;31.61;29.34;99859.91;5075309;28;20242;-64
2023/08/04 10:37:15;;;;;;;3.80;1.00;;;;;;;31.70;29.00;99846.47;5081429;28;20655;-63
2023/08/04 10:39:46;;;;;;;3.80;0.93;;;;;;;32.08;29.42;99851.50;5075717;28;20220;-64
2023/08/04 10:42:21;;;;;;;0.93;0.60;;;;;;;33.13;27.76;99848.19;5086910;28;20196;-63
2023/08/04 10:45:04;;;;;;;0.80;0.80;;;;;;;34.41;25.21;99850.81;5089353;28;20554;-64
2023/08/04 10:47:35;;;;;;;1.83;0.70;;;;;;;35.07;24.15;99857.38;5080609;28;20720;-65
2023/08/04 10:50:04;;;;;;;1.17;0.93;;;;;;;35.51;23.40;99848.63;5072777;28;20208;-63
2023/08/04 10:52:34;;;;;;;3.20;0.80;;;;;;;35.24;23.25;99854.53;5090695;28;20200;-64
2023/08/04 10:55:06;;;;;;;0.82;0.65;;;;;;;34.06;24.67;99866.38;5081382;28;20628;-63
2023/08/04 10:57:36;;;;;;;4.85;0.73;;;;;;;32.69;26.29;99860.97;5081447;28;20273;-64
2023/08/04 11:00:07;;;;;;;1.35;0.57;;;;;;;31.64;28.43;99873.72;5083809;28;20283;-64
2023/08/04 11:02:36;;;;;;;1.27;0.80;;;;;;;30.82;29.13;99884.72;5090969;28;20579;-63
2023/08/04 11:05:11;;;;;;;0.82;0.60;;;;;;;30.40;30.13;99871.97;5086490;28;20240;-63
2023/08/04 11:07:45;;;;;;;1.02;0.50;;;;;;;30.88;29.70;99868.16;5084415;28;20550;-63
2023/08/04 11:10:15;;;;;;;2.72;0.70;;;;;;;31.77;29.10;99866.13;5087261;28;20196;-64
2023/08/04 11:12:43;;;;;;;1.10;0.90;;;;;;;32.90;27.28;99869.34;5086627;28;20743;-64
2023/08/04 11:15:11;;;;;;;4.05;0.63;;;;;;;33.76;25.22;99875.97;5089582;28;20204;-65
2023/08/04 11:17:42;;;;;;;0.52;0.52;;;;;;;33.72;24.74;99880.00;5081860;28;20296;-63
2023/08/04 11:20:12;;;;;;;1.17;0.57;;;;;;;33.19;25.37;99887.56;5085486;28;20283;-64
2023/08/04 11:23:00;;;;;;;1.00;0.55;;;;;;;32.87;25.91;99877.69;5081897;28;20205;-64
2023/08/04 11:25:33;;;;;;;1.30;0.60;;;;;;;33.03;26.30;99868.91;5077428;28;20243;-62
2023/08/04 11:28:02;;;;;;;0.93;0.60;;;;;;;33.07;25.78;99872.06;5070110;28;20205;-65
2023/08/04 11:30:30;;;;;;;0.75;0.60;;;;;;;33.11;25.83;99881.41;5081551;28;20205;-64
2023/08/04 11:32:58;;;;;;;1.65;0.85;;;;;;;32.34;26.90;99872.72;5077077;28;20348;-64
2023/08/04 11:35:28;;;;;;;1.65;0.68;;;;;;;31.64;28.24;99873.72;5082879;28;20205;-64
2023/08/04 11:37:56;;;;;;;2.88;0.73;;;;;;;31.22;28.50;99882.38;5090799;28;20326;-64
2023/08/04 11:40:26;;;;;;;0.95;0.47;;;;;;;31.06;28.93;99876.94;5090977;28;20201;-64
2023/08/04 11:42:58;;;;;;;2.08;0.70;;;;;;;30.58;29.67;99870.16;5093271;28;20557;-63